Time;durP1;ratioP1;P1;durP2;ratioP2;P2;SDS_P1;SDS_P2;PMS_P1;PMS_P2;Temp;Humidity;BMP_temperature;BMP_pressure;BME280_temperature;BME280_humidity;BME280_pressure;Samples;Min_cycle;Max_cycle;Signal;HPM_P1;HPM_P2
2023/10/20 00:00:14;;;;;;;5.97;5.25;;;14.80;99.90;;;;;;5013774;28;20275;-66
2023/10/20 00:02:42;;;;;;;6.30;5.22;;;14.80;99.90;;;;;;5013979;28;20631;-66
2023/10/20 00:05:11;;;;;;;5.45;4.95;;;14.80;99.90;;;;;;5013905;28;20221;-65
2023/10/20 00:07:39;;;;;;;6.57;5.63;;;14.80;99.90;;;;;;5013762;28;20216;-65
2023/10/20 00:10:09;;;;;;;7.07;5.72;;;14.80;99.90;;;;;;5013800;28;20623;-65
2023/10/20 00:12:38;;;;;;;5.97;4.82;;;14.70;99.90;;;;;;5013563;28;20235;-65
2023/10/20 00:15:09;;;;;;;8.98;5.85;;;14.70;99.90;;;;;;5013622;28;20213;-66
2023/10/20 00:17:37;;;;;;;6.75;5.15;;;14.70;99.90;;;;;;5013471;28;20228;-66
2023/10/20 00:20:05;;;;;;;8.50;7.68;;;14.70;99.90;;;;;;5013464;28;20676;-66
2023/10/20 00:22:33;;;;;;;6.22;5.47;;;14.70;99.90;;;;;;5019055;28;20354;-65
2023/10/20 00:25:02;;;;;;;9.98;5.97;;;14.80;99.90;;;;;;5034333;28;20263;-65
2023/10/20 00:27:29;;;;;;;7.45;6.13;;;14.70;99.90;;;;;;5017088;28;20236;-66
2023/10/20 00:29:59;;;;;;;8.57;7.03;;;14.70;99.90;;;;;;5013090;28;20204;-64
2023/10/20 00:32:27;;;;;;;5.60;5.10;;;14.70;99.90;;;;;;5013420;28;20296;-66
2023/10/20 00:34:55;;;;;;;5.90;5.25;;;14.70;99.90;;;;;;5013343;28;20714;-65
2023/10/20 00:37:23;;;;;;;7.15;4.95;;;14.60;99.90;;;;;;5012717;28;20566;-65
2023/10/20 00:39:51;;;;;;;6.78;5.75;;;14.60;99.90;;;;;;5013254;28;20213;-68
2023/10/20 00:42:19;;;;;;;5.63;4.55;;;14.60;99.90;;;;;;5013688;28;20229;-68
2023/10/20 00:44:47;;;;;;;6.18;4.82;;;14.60;99.90;;;;;;5013109;28;20212;-65
2023/10/20 00:47:17;;;;;;;5.88;4.50;;;14.60;99.90;;;;;;5012882;28;20209;-65
2023/10/20 00:49:46;;;;;;;7.30;4.95;;;14.70;99.90;;;;;;5013058;28;20284;-65
2023/10/20 00:52:15;;;;;;;6.20;4.72;;;14.70;99.90;;;;;;5022213;28;20259;-65
2023/10/20 00:54:46;;;;;;;6.93;5.70;;;14.70;99.90;;;;;;5012828;28;20263;-66
2023/10/20 00:57:16;;;;;;;5.32;4.75;;;14.60;99.90;;;;;;5016962;28;20248;-65
2023/10/20 00:59:44;;;;;;;7.95;4.75;;;14.60;99.90;;;;;;5012924;28;20201;-65
2023/10/20 01:02:13;;;;;;;5.75;4.20;;;14.60;99.90;;;;;;5012552;28;20585;-65
2023/10/20 01:04:42;;;;;;;5.05;4.50;;;14.60;99.90;;;;;;5012615;28;20664;-66
2023/10/20 01:07:10;;;;;;;5.00;3.97;;;14.60;99.90;;;;;;5012349;28;20271;-65
2023/10/20 01:09:38;;;;;;;5.65;4.72;;;14.60;99.90;;;;;;5012633;28;20641;-65
2023/10/20 01:12:06;;;;;;;5.80;4.72;;;14.60;99.90;;;;;;5012687;28;20210;-66
2023/10/20 01:14:35;;;;;;;5.88;4.45;;;14.60;99.90;;;;;;5012426;28;20201;-65
2023/10/20 01:17:04;;;;;;;7.70;4.35;;;14.60;99.90;;;;;;5012338;28;20216;-68
2023/10/20 01:19:32;;;;;;;4.45;3.50;;;14.60;99.90;;;;;;5017218;28;20208;-65
2023/10/20 01:22:02;;;;;;;4.88;3.95;;;14.60;99.90;;;;;;5032858;28;20216;-66
2023/10/20 01:24:31;;;;;;;5.97;4.50;;;14.60;99.90;;;;;;5040957;28;20205;-68
2023/10/20 01:26:59;;;;;;;5.22;4.25;;;14.60;99.90;;;;;;5012300;28;20216;-66
2023/10/20 01:29:27;;;;;;;8.40;6.57;;;14.60;99.90;;;;;;5011856;28;20229;-65
2023/10/20 01:31:55;;;;;;;4.65;3.90;;;14.60;99.90;;;;;;5012287;28;20287;-65
2023/10/20 01:34:23;;;;;;;3.75;3.35;;;14.60;99.90;;;;;;5011875;28;20742;-65
2023/10/20 01:36:51;;;;;;;4.90;3.97;;;14.60;99.90;;;;;;5012157;28;20213;-65
2023/10/20 01:39:19;;;;;;;5.13;4.57;;;14.60;99.90;;;;;;5011720;28;20244;-65
2023/10/20 01:41:48;;;;;;;4.50;4.10;;;14.60;99.90;;;;;;5011962;28;20225;-65
2023/10/20 01:44:16;;;;;;;4.93;4.05;;;14.60;99.90;;;;;;5012054;28;20223;-65
2023/10/20 01:46:49;;;;;;;5.35;4.25;;;14.60;99.90;;;;;;5011790;28;20640;-64
2023/10/20 01:49:18;;;;;;;5.05;4.10;;;14.60;99.90;;;;;;5011685;28;20629;-64
2023/10/20 01:51:46;;;;;;;6.82;3.97;;;14.50;99.90;;;;;;5036060;28;20621;-65
2023/10/20 01:54:14;;;;;;;5.80;3.95;;;14.60;99.90;;;;;;5044513;28;20219;-64
2023/10/20 01:56:43;;;;;;;4.13;3.28;;;14.60;99.90;;;;;;5012532;28;20209;-65
2023/10/20 01:59:13;;;;;;;3.42;3.13;;;14.60;99.90;;;;;;5011343;28;20229;-68
2023/10/20 02:01:41;;;;;;;7.00;4.07;;;14.60;99.90;;;;;;5011403;28;20730;-65
2023/10/20 02:04:09;;;;;;;4.35;3.60;;;14.60;99.90;;;;;;5011677;28;20224;-65
2023/10/20 02:06:36;;;;;;;4.85;4.30;;;14.60;99.90;;;;;;5019708;28;20295;-66
2023/10/20 02:09:06;;;;;;;4.88;4.18;;;14.50;99.90;;;;;;5011165;28;20719;-66
2023/10/20 02:11:34;;;;;;;4.30;3.28;;;14.60;99.90;;;;;;5011416;28;20816;-65
2023/10/20 02:14:03;;;;;;;4.32;3.63;;;14.50;99.90;;;;;;5010931;28;20284;-65
2023/10/20 02:16:32;;;;;;;3.22;2.92;;;14.50;99.90;;;;;;5011616;28;20228;-65
2023/10/20 02:19:00;;;;;;;4.10;3.72;;;14.50;99.90;;;;;;5013535;28;20225;-66
2023/10/20 02:21:29;;;;;;;5.13;4.22;;;14.50;99.90;;;;;;5033352;28;20212;-65
2023/10/20 02:23:57;;;;;;;5.38;3.55;;;14.50;99.90;;;;;;5046759;28;20231;-65
2023/10/20 02:26:25;;;;;;;3.72;3.40;;;14.50;99.90;;;;;;5014763;28;20637;-68
2023/10/20 02:28:53;;;;;;;4.80;3.70;;;14.50;99.90;;;;;;5010958;28;20746;-67
2023/10/20 02:31:21;;;;;;;3.85;3.47;;;14.50;99.90;;;;;;5011318;28;20237;-65
2023/10/20 02:33:50;;;;;;;4.97;4.35;;;14.50;99.90;;;;;;5011122;28;20201;-65
2023/10/20 02:36:18;;;;;;;4.75;3.63;;;14.50;99.90;;;;;;5011290;28;20220;-65
2023/10/20 02:38:47;;;;;;;3.92;3.40;;;14.40;99.90;;;;;;5010415;28;20712;-65
2023/10/20 02:41:15;;;;;;;4.10;3.70;;;14.40;99.90;;;;;;5011092;28;20209;-66
2023/10/20 02:43:43;;;;;;;4.22;3.83;;;14.40;99.90;;;;;;5010855;28;20225;-66
2023/10/20 02:46:12;;;;;;;5.03;4.47;;;14.40;99.90;;;;;;5011093;28;20549;-66
2023/10/20 02:48:40;;;;;;;6.70;5.38;;;14.40;99.90;;;;;;5010486;28;20228;-68
2023/10/20 02:51:11;;;;;;;5.40;4.18;;;14.40;99.90;;;;;;5029941;28;20212;-68
2023/10/20 02:53:39;;;;;;;7.82;4.60;;;14.40;99.90;;;;;;5048751;28;20212;-66
2023/10/20 02:56:12;;;;;;;7.15;5.75;;;14.40;99.90;;;;;;5017226;28;20213;-66
2023/10/20 02:58:43;;;;;;;4.40;3.92;;;14.40;99.90;;;;;;5010402;28;20237;-68
2023/10/20 03:01:12;;;;;;;5.18;4.20;;;14.30;99.90;;;;;;5010943;28;20216;-69
2023/10/20 03:03:40;;;;;;;7.88;4.57;;;14.30;99.90;;;;;;5010722;28;20645;-65
2023/10/20 03:06:09;;;;;;;5.03;4.18;;;14.40;99.90;;;;;;5010810;28;20266;-66
2023/10/20 03:08:39;;;;;;;5.85;4.97;;;14.30;99.90;;;;;;5010261;28;20280;-66
2023/10/20 03:11:07;;;;;;;5.10;4.60;;;14.30;99.90;;;;;;5010819;28;20396;-66
2023/10/20 03:13:35;;;;;;;7.35;5.13;;;14.30;99.90;;;;;;5010587;28;20205;-66
2023/10/20 03:16:05;;;;;;;6.60;4.95;;;14.30;99.90;;;;;;5010856;28;20201;-67
2023/10/20 03:18:33;;;;;;;6.53;4.93;;;14.20;99.90;;;;;;5010012;28;20240;-66
2023/10/20 03:21:01;;;;;;;6.85;5.80;;;14.20;99.90;;;;;;5033892;28;20269;-65
2023/10/20 03:23:31;;;;;;;5.45;4.95;;;14.20;99.90;;;;;;5050117;28;20224;-64
2023/10/20 03:25:59;;;;;;;6.80;5.40;;;14.20;99.90;;;;;;5012846;28;20197;-65
2023/10/20 03:28:28;;;;;;;6.22;5.63;;;14.20;99.90;;;;;;5014207;28;20240;-64
2023/10/20 03:30:56;;;;;;;7.68;5.63;;;14.20;99.90;;;;;;5014352;28;20206;-65
2023/10/20 03:33:24;;;;;;;7.53;5.00;;;14.20;99.90;;;;;;5014398;28;20668;-65
2023/10/20 03:36:00;;;;;;;5.40;4.85;;;14.20;99.90;;;;;;5014259;28;20209;-65
2023/10/20 03:38:28;;;;;;;5.80;5.30;;;14.20;99.90;;;;;;5013703;28;20750;-65
2023/10/20 03:41:07;;;;;;;5.85;4.82;;;14.10;99.90;;;;;;5014303;28;20197;-65
2023/10/20 03:43:35;;;;;;;8.13;5.55;;;14.20;99.90;;;;;;5014118;28;20611;-63
2023/10/20 03:46:04;;;;;;;5.43;4.80;;;14.20;99.90;;;;;;5014310;28;20296;-67
2023/10/20 03:48:34;;;;;;;5.57;5.07;;;14.10;99.90;;;;;;5013790;28;20233;-65
2023/10/20 03:51:05;;;;;;;5.32;4.78;;;14.10;99.90;;;;;;5025396;28;20208;-65
2023/10/20 03:53:41;;;;;;;5.60;4.55;;;14.10;99.90;;;;;;5053660;28;20200;-65
2023/10/20 03:56:10;;;;;;;7.70;5.50;;;14.10;99.90;;;;;;5013831;28;20221;-65
2023/10/20 03:58:42;;;;;;;5.15;4.75;;;14.10;99.90;;;;;;5013612;28;20315;-66
2023/10/20 04:01:11;;;;;;;6.10;5.35;;;14.00;99.90;;;;;;5014117;28;20212;-68
2023/10/20 04:03:40;;;;;;;7.43;5.63;;;14.10;99.90;;;;;;5020051;28;20225;-66
2023/10/20 04:06:08;;;;;;;7.53;6.05;;;14.00;99.90;;;;;;5013793;28;20291;-68
2023/10/20 04:08:36;;;;;;;5.68;5.10;;;14.00;99.90;;;;;;5013533;28;20225;-64
2023/10/20 04:11:04;;;;;;;7.07;6.07;;;13.90;99.90;;;;;;5013923;28;20213;-66
2023/10/20 04:13:35;;;;;;;7.45;5.82;;;14.00;99.90;;;;;;5013628;28;20220;-64
2023/10/20 04:16:12;;;;;;;7.07;6.10;;;13.90;99.90;;;;;;5022429;28;20208;-65
2023/10/20 04:18:41;;;;;;;8.10;7.00;;;13.90;99.90;;;;;;5026605;28;20289;-64
2023/10/20 04:21:11;;;;;;;8.55;6.72;;;13.90;99.90;;;;;;5023460;28;20208;-65
2023/10/20 04:23:39;;;;;;;6.45;5.75;;;13.90;99.90;;;;;;5030824;28;20232;-65
2023/10/20 04:26:18;;;;;;;10.30;5.70;;;13.90;99.90;;;;;;5027702;28;20232;-66
2023/10/20 04:29:02;;;;;;;7.97;7.13;;;13.90;99.90;;;;;;5027790;28;20643;-66
2023/10/20 04:43:04;;;;;;;10.27;7.70;;;13.80;99.90;;;;;;4977261;28;20293;-63
2023/10/20 04:48:34;;;;;;;8.88;6.78;;;13.80;99.90;;;;;;4964765;28;20269;-64
2023/10/20 04:53:52;;;;;;;8.45;7.07;;;13.70;99.90;;;;;;4970962;28;20311;-64
2023/10/20 04:56:38;;;;;;;9.82;7.47;;;13.70;99.90;;;;;;4972408;28;20220;-66
2023/10/20 04:59:09;;;;;;;10.45;8.80;;;13.70;99.90;;;;;;4970628;28;20238;-65
2023/10/20 05:01:43;;;;;;;10.05;8.07;;;13.70;99.90;;;;;;4967579;28;20210;-64
2023/10/20 05:04:15;;;;;;;10.23;7.70;;;13.70;99.90;;;;;;4971075;28;20233;-66
2023/10/20 05:06:44;;;;;;;11.23;7.38;;;13.70;99.90;;;;;;4976283;28;20697;-66
2023/10/20 05:09:16;;;;;;;9.50;7.63;;;13.70;99.90;;;;;;4969172;28;20309;-63
2023/10/20 05:11:46;;;;;;;10.90;9.13;;;13.70;99.90;;;;;;4970326;28;20221;-64
2023/10/20 05:14:14;;;;;;;9.30;7.78;;;13.70;99.90;;;;;;4969874;28;20199;-66
2023/10/20 05:16:43;;;;;;;8.95;7.03;;;13.60;99.90;;;;;;4968693;28;20229;-66
2023/10/20 05:19:12;;;;;;;10.32;7.72;;;13.60;99.90;;;;;;4969589;28;20289;-63
2023/10/20 05:21:40;;;;;;;9.82;7.43;;;13.60;99.90;;;;;;4969258;28;20214;-65
2023/10/20 05:24:09;;;;;;;8.77;7.65;;;13.60;99.90;;;;;;4975148;28;20342;-64
2023/10/20 05:26:39;;;;;;;10.52;7.35;;;13.60;99.90;;;;;;4974918;28;20218;-64
2023/10/20 05:29:07;;;;;;;12.55;8.90;;;13.60;99.90;;;;;;4971973;28;20284;-64
2023/10/20 05:31:35;;;;;;;11.57;7.30;;;13.60;99.90;;;;;;4966331;28;20218;-64
2023/10/20 05:34:04;;;;;;;13.55;8.05;;;13.60;99.90;;;;;;4970323;28;20677;-66
2023/10/20 05:36:32;;;;;;;13.57;7.55;;;13.60;99.90;;;;;;4972769;28;20261;-65
2023/10/20 05:39:00;;;;;;;12.30;8.85;;;13.60;99.90;;;;;;5011017;28;20239;-63
2023/10/20 05:41:29;;;;;;;10.70;9.10;;;13.50;99.90;;;;;;5022054;28;20850;-64
2023/10/20 05:43:58;;;;;;;14.55;9.15;;;13.60;99.90;;;;;;5030450;28;20223;-66
2023/10/20 05:46:26;;;;;;;9.00;8.05;;;13.50;99.90;;;;;;5027487;28;20706;-63
2023/10/20 05:48:54;;;;;;;10.38;9.13;;;13.60;99.90;;;;;;5025854;28;20235;-63
2023/10/20 05:51:23;;;;;;;9.45;7.88;;;13.50;99.90;;;;;;5021205;28;20208;-65
2023/10/20 05:53:53;;;;;;;12.57;8.90;;;13.50;99.90;;;;;;5026194;28;20302;-64
2023/10/20 05:56:21;;;;;;;10.95;8.70;;;13.50;99.90;;;;;;5020479;28;20833;-63
2023/10/20 05:58:50;;;;;;;14.75;9.02;;;13.50;99.90;;;;;;5028139;28;20328;-63
2023/10/20 06:01:18;;;;;;;11.23;8.23;;;13.50;99.90;;;;;;5026266;28;20211;-65
2023/10/20 06:03:46;;;;;;;14.82;10.23;;;13.50;99.90;;;;;;5026567;28;20290;-64
2023/10/20 06:06:14;;;;;;;12.55;8.45;;;13.50;99.90;;;;;;5025136;28;20622;-64
2023/10/20 06:08:44;;;;;;;9.80;7.55;;;13.50;99.90;;;;;;5022344;28;20659;-65
2023/10/20 06:11:12;;;;;;;10.77;8.63;;;13.50;99.90;;;;;;5027768;28;20196;-64
2023/10/20 06:13:40;;;;;;;13.55;8.10;;;13.50;99.90;;;;;;5015848;28;20280;-64
2023/10/20 06:16:09;;;;;;;8.77;7.45;;;13.50;99.90;;;;;;5017236;28;20677;-63
2023/10/20 06:18:39;;;;;;;10.27;8.40;;;13.50;99.90;;;;;;5013708;28;20232;-64
2023/10/20 06:21:12;;;;;;;11.27;8.57;;;13.50;99.90;;;;;;5022497;28;20262;-64
2023/10/20 06:23:41;;;;;;;10.45;8.27;;;13.50;99.90;;;;;;5028291;28;20540;-64
2023/10/20 06:26:10;;;;;;;8.40;7.40;;;13.50;99.90;;;;;;5017253;28;20232;-65
2023/10/20 06:28:38;;;;;;;12.23;8.70;;;13.50;99.90;;;;;;5011131;28;20575;-65
2023/10/20 06:31:27;;;;;;;10.75;8.20;;;13.50;99.90;;;;;;5011200;28;20271;-65
2023/10/20 06:34:00;;;;;;;10.57;8.35;;;13.50;99.90;;;;;;5011246;28;20296;-65
2023/10/20 06:36:28;;;;;;;9.73;7.63;;;13.50;99.90;;;;;;5011124;28;20209;-65
2023/10/20 06:38:56;;;;;;;8.70;7.45;;;13.50;99.90;;;;;;5010642;28;20250;-65
2023/10/20 06:41:26;;;;;;;9.50;8.10;;;13.50;99.90;;;;;;5019291;28;20267;-65
2023/10/20 06:43:55;;;;;;;10.77;7.75;;;13.50;99.90;;;;;;5010843;28;20244;-65
2023/10/20 06:46:22;;;;;;;14.52;9.65;;;13.50;99.90;;;;;;5011031;28;20205;-65
2023/10/20 06:48:50;;;;;;;8.00;6.90;;;13.40;99.90;;;;;;5010555;28;20229;-64
2023/10/20 06:51:18;;;;;;;9.95;7.60;;;13.40;99.90;;;;;;5024052;28;20257;-64
2023/10/20 06:53:46;;;;;;;8.60;7.43;;;13.40;99.90;;;;;;5050477;28;20212;-65
2023/10/20 06:56:14;;;;;;;12.05;8.27;;;13.40;99.90;;;;;;5019153;28;20201;-63
2023/10/20 06:58:48;;;;;;;11.63;7.95;;;13.40;99.90;;;;;;5010717;28;20225;-65
2023/10/20 07:01:16;;;;;;;13.15;9.75;;;13.40;99.90;;;;;;5010451;28;20201;-64
2023/10/20 07:03:44;;;;;;;8.95;7.25;;;13.40;99.90;;;;;;5010919;28;20287;-64
2023/10/20 07:06:12;;;;;;;10.35;8.93;;;13.30;99.90;;;;;;5010547;28;20224;-64
2023/10/20 07:08:40;;;;;;;10.05;8.95;;;13.40;99.90;;;;;;5010702;28;20252;-63
2023/10/20 07:11:09;;;;;;;9.50;7.90;;;13.30;99.90;;;;;;5010473;28;20214;-64
2023/10/20 07:13:37;;;;;;;9.57;8.48;;;13.30;99.90;;;;;;5010854;28;20343;-65
2023/10/20 07:16:06;;;;;;;10.73;8.05;;;13.30;99.90;;;;;;5010257;28;20212;-65
2023/10/20 07:18:34;;;;;;;10.02;9.02;;;13.30;99.90;;;;;;5010628;28;20257;-65
2023/10/20 07:21:02;;;;;;;7.85;6.70;;;13.30;99.90;;;;;;5018492;28;20211;-65
2023/10/20 07:23:31;;;;;;;10.50;8.00;;;13.30;99.90;;;;;;5044973;28;20235;-65
2023/10/20 07:25:59;;;;;;;12.07;9.60;;;13.30;99.90;;;;;;5013046;28;20224;-64
2023/10/20 07:28:27;;;;;;;10.13;8.45;;;13.30;99.90;;;;;;5010444;28;20236;-63
2023/10/20 07:30:55;;;;;;;13.13;9.75;;;13.30;99.90;;;;;;5010629;28;20210;-64
2023/10/20 07:33:25;;;;;;;8.93;7.75;;;13.30;99.90;;;;;;5010505;28;20205;-65
2023/10/20 07:35:53;;;;;;;10.05;7.10;;;13.30;99.90;;;;;;5018524;28;20573;-64
2023/10/20 07:38:21;;;;;;;10.40;9.00;;;13.30;99.90;;;;;;5010241;28;20287;-65
2023/10/20 07:40:49;;;;;;;8.80;7.88;;;13.30;99.90;;;;;;5010495;28;20248;-64
2023/10/20 07:43:17;;;;;;;12.43;9.02;;;13.30;99.90;;;;;;5010248;28;20216;-65
2023/10/20 07:45:45;;;;;;;11.13;8.50;;;13.30;99.90;;;;;;5010608;28;20719;-64
2023/10/20 07:48:14;;;;;;;7.72;6.93;;;13.30;99.90;;;;;;5010372;28;20229;-62
2023/10/20 07:50:43;;;;;;;9.38;8.43;;;13.30;99.90;;;;;;5014612;28;20361;-65
2023/10/20 07:53:14;;;;;;;8.52;7.70;;;13.30;99.90;;;;;;5048710;28;20204;-64
2023/10/20 07:55:42;;;;;;;8.82;7.82;;;13.30;99.90;;;;;;5029325;28;20239;-65
2023/10/20 07:58:10;;;;;;;8.20;6.53;;;13.30;99.90;;;;;;5010074;28;20793;-62
2023/10/20 08:00:38;;;;;;;10.18;7.18;;;13.30;99.90;;;;;;5010374;28;20205;-66
2023/10/20 08:03:08;;;;;;;8.25;7.38;;;13.30;99.90;;;;;;5010057;28;20233;-65
2023/10/20 08:05:37;;;;;;;9.85;7.35;;;13.30;99.90;;;;;;5010154;28;20300;-65
2023/10/20 08:08:07;;;;;;;9.43;8.05;;;13.30;99.90;;;;;;5009863;28;20229;-65
2023/10/20 08:10:37;;;;;;;9.20;6.95;;;13.30;99.90;;;;;;5010341;28;20208;-65
2023/10/20 08:13:05;;;;;;;8.75;6.82;;;13.40;99.90;;;;;;5012182;28;20204;-65
2023/10/20 08:15:37;;;;;;;8.88;7.65;;;13.40;99.90;;;;;;5013602;28;20255;-64
2023/10/20 08:18:06;;;;;;;12.13;8.02;;;13.40;99.90;;;;;;5013400;28;20237;-65
2023/10/20 08:20:36;;;;;;;10.35;7.25;;;13.40;99.90;;;;;;5016857;28;20206;-64
2023/10/20 08:23:04;;;;;;;10.60;7.55;;;13.40;99.90;;;;;;5050231;28;20222;-65
2023/10/20 08:25:37;;;;;;;8.68;7.20;;;13.30;99.90;;;;;;5035865;28;20224;-65
2023/10/20 08:28:07;;;;;;;9.55;7.60;;;13.30;99.90;;;;;;5013192;28;20221;-64
2023/10/20 08:30:35;;;;;;;8.88;7.78;;;13.40;99.90;;;;;;5013499;28;20258;-65
2023/10/20 08:33:10;;;;;;;9.85;7.30;;;13.40;99.90;;;;;;4993779;28;20221;-65
2023/10/20 08:35:39;;;;;;;9.77;7.68;;;13.40;99.90;;;;;;5013278;28;20740;-65
2023/10/20 08:38:07;;;;;;;9.20;7.78;;;13.40;99.90;;;;;;5012777;28;20237;-65
2023/10/20 08:40:36;;;;;;;7.78;7.00;;;13.40;99.90;;;;;;5018039;28;20208;-65
2023/10/20 08:43:26;;;;;;;9.15;6.72;;;13.40;99.90;;;;;;5013191;28;20205;-65
2023/10/20 08:45:55;;;;;;;10.35;8.18;;;13.40;99.90;;;;;;5013016;28;20228;-65
2023/10/20 08:48:23;;;;;;;7.13;6.43;;;13.50;99.90;;;;;;5015688;28;20256;-65
2023/10/20 08:50:54;;;;;;;7.35;6.65;;;13.60;99.90;;;;;;5023619;28;20207;-65
2023/10/20 08:53:23;;;;;;;8.20;7.40;;;13.60;99.90;;;;;;5051866;28;20222;-65
2023/10/20 08:55:52;;;;;;;10.98;7.28;;;13.60;99.90;;;;;;5030860;28;20223;-67
2023/10/20 08:58:21;;;;;;;7.68;6.38;;;13.70;99.90;;;;;;5012685;28;20239;-65
2023/10/20 09:00:48;;;;;;;7.30;6.60;;;13.60;99.90;;;;;;5013096;28;20209;-65
2023/10/20 09:03:26;;;;;;;7.57;6.78;;;13.70;99.90;;;;;;5012815;28;20782;-64
2023/10/20 09:06:05;;;;;;;8.43;7.03;;;13.70;99.90;;;;;;5012614;28;20232;-65
2023/10/20 09:08:33;;;;;;;7.47;6.70;;;13.80;99.90;;;;;;5013086;28;20611;-65
2023/10/20 09:11:06;;;;;;;8.75;7.50;;;13.80;99.90;;;;;;5012799;28;20205;-65
2023/10/20 09:13:37;;;;;;;7.38;6.30;;;13.90;99.90;;;;;;5012815;28;20214;-65
2023/10/20 09:16:08;;;;;;;6.32;5.68;;;13.90;99.90;;;;;;5012288;28;20212;-64
2023/10/20 09:18:46;;;;;;;6.13;5.57;;;14.00;99.90;;;;;;5012262;28;20240;-65
2023/10/20 09:21:15;;;;;;;7.20;6.50;;;14.00;99.90;;;;;;5022554;28;20216;-65
2023/10/20 09:23:55;;;;;;;6.68;5.85;;;14.00;99.90;;;;;;5043922;28;20204;-65
2023/10/20 09:26:26;;;;;;;8.02;5.85;;;14.10;99.90;;;;;;5022373;28;20275;-63
2023/10/20 09:28:56;;;;;;;6.43;5.78;;;14.10;99.90;;;;;;5012208;28;20217;-65
2023/10/20 09:31:26;;;;;;;5.72;5.10;;;14.10;99.90;;;;;;5012151;28;20247;-63
2023/10/20 09:33:55;;;;;;;6.97;5.68;;;14.20;99.90;;;;;;5020529;28;20216;-66
2023/10/20 09:36:23;;;;;;;6.05;5.45;;;14.20;99.90;;;;;;5011907;28;20240;-65
2023/10/20 09:38:53;;;;;;;8.68;6.35;;;14.20;99.90;;;;;;5011676;28;20249;-65
2023/10/20 09:41:24;;;;;;;4.57;3.92;;;14.20;99.90;;;;;;5012036;28;20213;-66
2023/10/20 09:43:53;;;;;;;7.05;5.40;;;14.20;99.90;;;;;;5012031;28;20205;-65
2023/10/20 09:46:33;;;;;;;9.25;6.15;;;14.30;99.90;;;;;;5011707;28;20235;-65
2023/10/20 09:49:09;;;;;;;8.40;5.22;;;14.30;99.90;;;;;;5011764;28;20247;-65
2023/10/20 09:51:38;;;;;;;5.13;4.63;;;14.30;99.90;;;;;;5028090;28;20204;-65
2023/10/20 09:54:06;;;;;;;5.00;4.13;;;14.40;99.90;;;;;;5051443;28;20204;-66
2023/10/20 09:56:35;;;;;;;4.82;4.22;;;14.40;99.90;;;;;;5035943;28;20279;-64
2023/10/20 09:59:08;;;;;;;5.70;5.20;;;14.50;99.90;;;;;;5011744;28;20236;-65
2023/10/20 10:01:37;;;;;;;4.72;3.95;;;14.70;99.90;;;;;;5011862;28;20197;-65
2023/10/20 10:04:08;;;;;;;5.93;5.25;;;14.80;99.90;;;;;;5020306;28;20212;-65
2023/10/20 10:06:37;;;;;;;5.72;5.18;;;14.90;99.90;;;;;;5011893;28;20213;-66
2023/10/20 10:09:05;;;;;;;6.07;5.40;;;14.90;99.90;;;;;;5011365;28;20295;-63
2023/10/20 10:11:42;;;;;;;5.65;5.03;;;15.00;99.90;;;;;;5011739;28;20201;-65
2023/10/20 10:14:19;;;;;;;7.05;5.60;;;15.00;99.90;;;;;;5011540;28;20209;-64
2023/10/20 10:16:53;;;;;;;5.60;5.00;;;15.00;99.90;;;;;;5011412;28;20731;-65
2023/10/20 10:19:24;;;;;;;7.82;6.30;;;15.10;99.90;;;;;;5019265;28;20324;-66
2023/10/20 10:21:56;;;;;;;5.38;4.85;;;15.10;99.90;;;;;;5033669;28;20274;-65
2023/10/20 10:24:25;;;;;;;4.95;4.47;;;15.20;99.90;;;;;;5037213;28;20205;-65
2023/10/20 10:26:56;;;;;;;9.45;5.80;;;15.20;99.90;;;;;;5011313;28;20224;-64
2023/10/20 10:29:43;;;;;;;;;;;15.30;99.90;;;;;;5010790;28;20240;-65
2023/10/20 10:32:13;;;;;;;5.85;5.30;;;15.30;99.90;;;;;;5011358;28;20175;-65
2023/10/20 10:34:42;;;;;;;;;;;15.40;99.90;;;;;;5011442;28;20172;-65
2023/10/20 10:37:10;;;;;;;;;;;15.40;99.90;;;;;;5011428;28;25115;-63
2023/10/20 10:39:38;;;;;;;;;;;15.40;99.90;;;;;;5011542;28;20064;-65
2023/10/20 10:42:07;;;;;;;;;;;15.40;99.90;;;;;;5011761;28;20658;-65
2023/10/20 10:44:35;;;;;;;;;;;15.40;99.90;;;;;;5011429;28;20203;-65
2023/10/20 10:47:07;;;;;;;;;;;15.40;99.90;;;;;;5011458;28;20276;-64
2023/10/20 10:49:35;;;;;;;7.30;5.40;;;15.40;99.90;;;;;;5010784;28;20055;-66
2023/10/20 10:52:07;;;;;;;7.65;6.10;;;15.50;99.90;;;;;;5041440;28;20242;-66
2023/10/20 10:54:35;;;;;;;7.57;6.05;;;15.50;99.90;;;;;;5036130;28;20505;-65
2023/10/20 10:57:04;;;;;;;6.20;5.63;;;15.50;99.90;;;;;;5010976;28;20201;-65
2023/10/20 10:59:34;;;;;;;8.52;6.40;;;15.50;99.90;;;;;;5010571;28;20212;-65
2023/10/20 11:02:03;;;;;;;8.65;6.15;;;15.50;99.90;;;;;;5017386;28;20667;-65
2023/10/20 11:04:32;;;;;;;6.97;5.90;;;15.50;99.90;;;;;;5011754;28;20580;-65
2023/10/20 11:07:01;;;;;;;8.35;6.28;;;15.70;99.90;;;;;;5010874;28;20255;-65
2023/10/20 11:09:30;;;;;;;5.47;4.93;;;15.70;99.90;;;;;;5010672;28;20232;-63
2023/10/20 11:11:58;;;;;;;7.28;6.18;;;15.70;99.90;;;;;;5010675;28;20201;-65
2023/10/20 11:14:26;;;;;;;6.63;5.90;;;15.70;99.90;;;;;;5010503;28;20212;-62
2023/10/20 11:16:55;;;;;;;7.97;5.25;;;15.70;99.90;;;;;;5011100;28;20198;-65
2023/10/20 11:19:23;;;;;;;6.00;5.15;;;15.90;99.90;;;;;;5010437;28;20600;-63
2023/10/20 11:21:52;;;;;;;6.28;4.63;;;16.00;99.90;;;;;;5037526;28;20265;-65
2023/10/20 11:24:28;;;;;;;4.13;3.72;;;16.00;99.90;;;;;;5040326;28;20231;-65
2023/10/20 11:27:01;;;;;;;6.28;5.03;;;16.10;99.90;;;;;;5018856;28;20605;-65
2023/10/20 11:29:30;;;;;;;4.63;4.22;;;16.10;99.90;;;;;;5018478;28;20247;-65
2023/10/20 11:32:13;;;;;;;5.20;4.70;;;16.20;99.90;;;;;;5010600;28;20201;-65
2023/10/20 11:34:41;;;;;;;4.97;4.50;;;16.20;99.90;;;;;;5010569;28;20213;-65
2023/10/20 11:37:12;;;;;;;4.75;4.35;;;16.20;99.90;;;;;;5010615;28;20358;-66
2023/10/20 11:39:40;;;;;;;5.65;5.03;;;16.30;99.90;;;;;;5010294;28;20209;-65
2023/10/20 11:42:10;;;;;;;5.85;4.28;;;16.50;99.90;;;;;;5010442;28;20256;-65
2023/10/20 11:44:38;;;;;;;5.30;4.80;;;16.70;99.90;;;;;;5018182;28;20558;-65
2023/10/20 11:47:06;;;;;;;4.57;4.15;;;16.70;99.90;;;;;;5010980;28;20232;-66
2023/10/20 11:49:35;;;;;;;4.70;4.20;;;16.70;99.90;;;;;;5014083;28;20228;-66
2023/10/20 11:52:07;;;;;;;4.22;3.80;;;16.80;99.90;;;;;;5044065;28;20254;-65
2023/10/20 11:54:36;;;;;;;4.20;3.80;;;16.70;99.90;;;;;;5040892;28;20181;-65
2023/10/20 11:57:04;;;;;;;4.20;3.75;;;16.70;99.90;;;;;;5014183;28;20205;-65
2023/10/20 11:59:33;;;;;;;3.15;2.88;;;16.70;99.90;;;;;;5013738;28;20231;-65
2023/10/20 12:02:01;;;;;;;4.18;3.83;;;16.70;99.90;;;;;;5014072;28;20206;-65
2023/10/20 12:04:29;;;;;;;3.80;3.50;;;16.60;99.90;;;;;;5013548;28;20222;-64
2023/10/20 12:06:59;;;;;;;5.30;4.85;;;16.60;99.90;;;;;;5013927;28;20251;-65
2023/10/20 12:09:27;;;;;;;4.45;3.92;;;16.70;99.90;;;;;;5014616;28;20640;-66
2023/10/20 12:11:55;;;;;;;4.70;4.30;;;16.70;99.90;;;;;;5013794;28;20247;-65
2023/10/20 12:14:23;;;;;;;3.65;3.17;;;16.70;99.90;;;;;;5013508;28;20680;-64
2023/10/20 12:16:58;;;;;;;4.93;4.53;;;16.70;99.90;;;;;;5013898;28;20209;-65
2023/10/20 12:19:26;;;;;;;3.72;3.42;;;16.60;99.90;;;;;;5013470;28;20742;-66
2023/10/20 12:21:54;;;;;;;6.50;3.95;;;16.60;99.90;;;;;;5032821;28;20721;-66
2023/10/20 12:24:23;;;;;;;4.65;3.97;;;16.50;99.90;;;;;;5044168;28;20267;-65
2023/10/20 12:26:51;;;;;;;4.50;3.80;;;16.50;99.90;;;;;;5013616;28;20213;-65
2023/10/20 12:29:22;;;;;;;4.93;4.47;;;16.30;99.90;;;;;;5013500;28;20229;-65
2023/10/20 12:31:50;;;;;;;4.35;4.03;;;16.30;99.90;;;;;;5013808;28;20205;-65
2023/10/20 12:34:19;;;;;;;4.82;4.43;;;16.30;99.90;;;;;;5019192;28;20212;-65
2023/10/20 12:36:48;;;;;;;5.05;4.55;;;16.20;99.90;;;;;;5013234;28;20205;-65
2023/10/20 12:39:18;;;;;;;4.45;4.07;;;16.30;99.90;;;;;;5013076;28;20239;-65
2023/10/20 12:41:48;;;;;;;4.95;4.50;;;16.20;99.90;;;;;;5013170;28;20201;-67
2023/10/20 12:44:17;;;;;;;5.60;4.80;;;16.20;99.90;;;;;;5018736;28;20675;-65
2023/10/20 12:46:45;;;;;;;5.00;4.47;;;16.20;99.90;;;;;;5013037;28;20292;-65
2023/10/20 12:49:13;;;;;;;;;;;16.20;99.90;;;;;;5013719;28;20229;-65
2023/10/20 12:51:42;;;;;;;;;;;16.20;99.90;;;;;;5036773;28;20589;-65
2023/10/20 12:54:09;;;;;;;4.60;4.13;;;16.10;99.90;;;;;;5045936;28;20066;-66
2023/10/20 12:56:37;;;;;;;3.92;3.63;;;16.10;99.90;;;;;;5022505;28;20204;-66
2023/10/20 12:59:07;;;;;;;5.10;4.50;;;16.10;99.90;;;;;;5012423;28;20300;-67
2023/10/20 13:01:35;;;;;;;4.90;3.70;;;16.00;99.90;;;;;;5012788;28;20575;-66
2023/10/20 13:04:04;;;;;;;3.60;3.30;;;16.00;99.90;;;;;;5012473;28;20209;-63
2023/10/20 13:06:32;;;;;;;3.05;2.70;;;16.10;99.90;;;;;;5012700;28;20675;-65
2023/10/20 13:09:17;;;;;;;3.20;2.92;;;16.10;99.90;;;;;;5012651;28;20225;-65
2023/10/20 13:11:45;;;;;;;3.28;2.80;;;16.20;99.90;;;;;;5012564;28;20696;-65
2023/10/20 13:14:15;;;;;;;3.70;2.97;;;16.20;99.90;;;;;;5012186;28;20444;-64
2023/10/20 13:16:43;;;;;;;3.22;2.75;;;16.20;99.90;;;;;;5012701;28;20745;-65